sensor_id;sensor_type;location;lat;lon;timestamp;temperature;humidity
418;DHT22;49;48.530;9.200;2024-02-26T00:01:05;13.30;1.00
418;DHT22;49;48.530;9.200;2024-02-26T00:03:33;12.70;4.20
418;DHT22;49;48.530;9.200;2024-02-26T00:06:01;13.00;3.10
418;DHT22;49;48.530;9.200;2024-02-26T00:08:28;12.90;1.00
418;DHT22;49;48.530;9.200;2024-02-26T00:10:55;13.20;3.30
418;DHT22;49;48.530;9.200;2024-02-26T00:13:22;13.20;2.20
418;DHT22;49;48.530;9.200;2024-02-26T00:15:49;13.00;1.00
418;DHT22;49;48.530;9.200;2024-02-26T00:18:16;13.10;1.00
418;DHT22;49;48.530;9.200;2024-02-26T00:20:44;13.60;1.00
418;DHT22;49;48.530;9.200;2024-02-26T00:23:10;14.00;1.00
418;DHT22;49;48.530;9.200;2024-02-26T00:25:37;14.30;1.60
418;DHT22;49;48.530;9.200;2024-02-26T00:28:05;14.40;1.00
418;DHT22;49;48.530;9.200;2024-02-26T00:30:31;14.50;2.90
418;DHT22;49;48.530;9.200;2024-02-26T00:32:58;14.50;1.00
418;DHT22;49;48.530;9.200;2024-02-26T00:35:25;14.30;1.00
418;DHT22;49;48.530;9.200;2024-02-26T00:37:53;14.20;1.00
418;DHT22;49;48.530;9.200;2024-02-26T00:40:20;14.60;5.70
418;DHT22;49;48.530;9.200;2024-02-26T00:42:47;15.20;6.00
418;DHT22;49;48.530;9.200;2024-02-26T00:45:14;15.40;5.30
418;DHT22;49;48.530;9.200;2024-02-26T00:47:42;15.50;4.10
418;DHT22;49;48.530;9.200;2024-02-26T00:50:10;15.40;3.10
418;DHT22;49;48.530;9.200;2024-02-26T00:52:37;15.40;3.60
418;DHT22;49;48.530;9.200;2024-02-26T00:55:09;15.50;1.20
418;DHT22;49;48.530;9.200;2024-02-26T00:57:36;15.30;1.00
418;DHT22;49;48.530;9.200;2024-02-26T01:00:04;15.10;1.00
418;DHT22;49;48.530;9.200;2024-02-26T01:02:34;14.50;1.00
418;DHT22;49;48.530;9.200;2024-02-26T01:05:00;14.10;1.50
418;DHT22;49;48.530;9.200;2024-02-26T01:07:28;14.60;5.10
418;DHT22;49;48.530;9.200;2024-02-26T01:09:58;14.80;3.70
418;DHT22;49;48.530;9.200;2024-02-26T01:12:27;14.90;3.20
418;DHT22;49;48.530;9.200;2024-02-26T01:14:54;15.00;4.40
418;DHT22;49;48.530;9.200;2024-02-26T01:17:21;15.30;1.00
418;DHT22;49;48.530;9.200;2024-02-26T01:19:48;14.80;1.00
418;DHT22;49;48.530;9.200;2024-02-26T01:22:14;14.60;2.50
418;DHT22;49;48.530;9.200;2024-02-26T01:24:41;14.50;1.00
418;DHT22;49;48.530;9.200;2024-02-26T01:27:08;14.70;1.40
418;DHT22;49;48.530;9.200;2024-02-26T01:29:37;14.70;1.90
418;DHT22;49;48.530;9.200;2024-02-26T01:32:04;14.70;1.00
418;DHT22;49;48.530;9.200;2024-02-26T01:34:31;14.70;1.90
418;DHT22;49;48.530;9.200;2024-02-26T01:36:58;14.90;4.20
418;DHT22;49;48.530;9.200;2024-02-26T01:39:25;15.00;2.80
418;DHT22;49;48.530;9.200;2024-02-26T01:41:54;14.70;1.00
418;DHT22;49;48.530;9.200;2024-02-26T01:44:21;14.20;1.00
418;DHT22;49;48.530;9.200;2024-02-26T01:46:51;14.20;1.00
418;DHT22;49;48.530;9.200;2024-02-26T01:49:18;14.20;1.00
418;DHT22;49;48.530;9.200;2024-02-26T01:51:46;14.40;1.40
418;DHT22;49;48.530;9.200;2024-02-26T01:54:13;14.70;3.30
418;DHT22;49;48.530;9.200;2024-02-26T01:56:40;14.50;1.00
418;DHT22;49;48.530;9.200;2024-02-26T01:59:08;14.00;1.00
418;DHT22;49;48.530;9.200;2024-02-26T02:01:35;14.20;1.00
418;DHT22;49;48.530;9.200;2024-02-26T02:04:04;14.40;1.00
418;DHT22;49;48.530;9.200;2024-02-26T02:06:31;14.10;1.00
418;DHT22;49;48.530;9.200;2024-02-26T02:08:58;14.40;4.90
418;DHT22;49;48.530;9.200;2024-02-26T02:11:31;14.60;1.00
418;DHT22;49;48.530;9.200;2024-02-26T02:13:59;13.80;2.80
418;DHT22;49;48.530;9.200;2024-02-26T02:16:25;14.00;1.00
418;DHT22;49;48.530;9.200;2024-02-26T02:18:52;14.10;1.10
418;DHT22;49;48.530;9.200;2024-02-26T02:21:24;13.70;1.00
418;DHT22;49;48.530;9.200;2024-02-26T02:23:51;13.60;3.60
418;DHT22;49;48.530;9.200;2024-02-26T02:26:19;14.20;4.00
418;DHT22;49;48.530;9.200;2024-02-26T02:28:47;14.40;1.00
418;DHT22;49;48.530;9.200;2024-02-26T02:31:15;14.10;1.40
418;DHT22;49;48.530;9.200;2024-02-26T02:33:43;14.00;1.00
418;DHT22;49;48.530;9.200;2024-02-26T02:36:10;13.50;1.00
418;DHT22;49;48.530;9.200;2024-02-26T02:38:41;12.90;6.70
418;DHT22;49;48.530;9.200;2024-02-26T02:41:14;13.00;2.40
418;DHT22;49;48.530;9.200;2024-02-26T02:43:41;13.20;1.90
418;DHT22;49;48.530;9.200;2024-02-26T02:46:08;13.70;5.90
418;DHT22;49;48.530;9.200;2024-02-26T02:48:37;13.90;1.90
418;DHT22;49;48.530;9.200;2024-02-26T02:51:04;13.80;5.00
418;DHT22;49;48.530;9.200;2024-02-26T02:53:31;13.90;1.30
418;DHT22;49;48.530;9.200;2024-02-26T02:55:59;13.60;1.10
418;DHT22;49;48.530;9.200;2024-02-26T02:58:26;13.70;2.60
418;DHT22;49;48.530;9.200;2024-02-26T03:00:53;13.60;1.10
418;DHT22;49;48.530;9.200;2024-02-26T03:03:21;13.30;6.50
418;DHT22;49;48.530;9.200;2024-02-26T03:05:51;13.50;2.30
418;DHT22;49;48.530;9.200;2024-02-26T03:08:18;13.60;3.70
418;DHT22;49;48.530;9.200;2024-02-26T03:10:45;13.60;3.60
418;DHT22;49;48.530;9.200;2024-02-26T03:13:13;13.70;1.70
418;DHT22;49;48.530;9.200;2024-02-26T03:15:40;13.40;4.20
418;DHT22;49;48.530;9.200;2024-02-26T03:18:07;13.10;2.50
418;DHT22;49;48.530;9.200;2024-02-26T03:20:35;13.30;4.70
418;DHT22;49;48.530;9.200;2024-02-26T03:23:02;13.70;1.80
418;DHT22;49;48.530;9.200;2024-02-26T03:25:29;14.10;5.60
418;DHT22;49;48.530;9.200;2024-02-26T03:27:56;14.00;2.10
418;DHT22;49;48.530;9.200;2024-02-26T03:30:25;13.70;1.80
418;DHT22;49;48.530;9.200;2024-02-26T03:32:52;13.10;2.40
418;DHT22;49;48.530;9.200;2024-02-26T03:35:19;13.20;7.10
418;DHT22;49;48.530;9.200;2024-02-26T03:37:46;13.30;7.20
418;DHT22;49;48.530;9.200;2024-02-26T03:40:16;13.70;6.40
418;DHT22;49;48.530;9.200;2024-02-26T03:42:44;14.00;3.20
418;DHT22;49;48.530;9.200;2024-02-26T03:45:11;14.00;2.20
418;DHT22;49;48.530;9.200;2024-02-26T03:47:40;13.70;1.70
418;DHT22;49;48.530;9.200;2024-02-26T03:50:07;13.70;4.90
418;DHT22;49;48.530;9.200;2024-02-26T03:52:34;13.50;4.00
418;DHT22;49;48.530;9.200;2024-02-26T03:55:01;13.80;3.60
418;DHT22;49;48.530;9.200;2024-02-26T03:57:28;13.50;2.40
418;DHT22;49;48.530;9.200;2024-02-26T03:59:56;13.40;2.40
418;DHT22;49;48.530;9.200;2024-02-26T04:02:23;13.70;7.30
418;DHT22;49;48.530;9.200;2024-02-26T04:04:52;14.00;6.30
418;DHT22;49;48.530;9.200;2024-02-26T04:07:19;14.30;4.70
418;DHT22;49;48.530;9.200;2024-02-26T04:09:46;14.40;3.60
418;DHT22;49;48.530;9.200;2024-02-26T04:12:13;14.30;3.30
418;DHT22;49;48.530;9.200;2024-02-26T04:14:40;13.90;5.70
418;DHT22;49;48.530;9.200;2024-02-26T04:17:07;14.00;5.80
418;DHT22;49;48.530;9.200;2024-02-26T04:19:34;14.30;5.70
418;DHT22;49;48.530;9.200;2024-02-26T04:22:02;14.20;2.70
418;DHT22;49;48.530;9.200;2024-02-26T04:24:29;14.30;5.00
418;DHT22;49;48.530;9.200;2024-02-26T04:26:56;14.50;4.20
418;DHT22;49;48.530;9.200;2024-02-26T04:29:23;14.50;5.80
418;DHT22;49;48.530;9.200;2024-02-26T04:31:50;14.50;3.90
418;DHT22;49;48.530;9.200;2024-02-26T04:34:17;14.20;1.80
418;DHT22;49;48.530;9.200;2024-02-26T04:36:44;14.20;6.50
418;DHT22;49;48.530;9.200;2024-02-26T04:39:12;14.00;4.90
418;DHT22;49;48.530;9.200;2024-02-26T04:41:39;13.50;3.50
418;DHT22;49;48.530;9.200;2024-02-26T04:44:06;13.20;4.00
418;DHT22;49;48.530;9.200;2024-02-26T04:46:33;12.50;4.80
418;DHT22;49;48.530;9.200;2024-02-26T04:49:00;12.30;5.10
418;DHT22;49;48.530;9.200;2024-02-26T04:51:27;12.50;3.90
418;DHT22;49;48.530;9.200;2024-02-26T04:53:54;12.00;3.20
418;DHT22;49;48.530;9.200;2024-02-26T04:56:22;11.20;4.80
418;DHT22;49;48.530;9.200;2024-02-26T04:58:49;10.80;10.50
418;DHT22;49;48.530;9.200;2024-02-26T05:01:16;11.40;5.90
418;DHT22;49;48.530;9.200;2024-02-26T05:03:44;12.00;5.20
418;DHT22;49;48.530;9.200;2024-02-26T05:06:11;12.40;9.30
418;DHT22;49;48.530;9.200;2024-02-26T05:08:38;12.90;7.70
418;DHT22;49;48.530;9.200;2024-02-26T05:11:05;13.30;6.00
418;DHT22;49;48.530;9.200;2024-02-26T05:13:33;13.40;3.30
418;DHT22;49;48.530;9.200;2024-02-26T05:16:00;13.80;5.50
418;DHT22;49;48.530;9.200;2024-02-26T05:18:28;13.90;6.40
418;DHT22;49;48.530;9.200;2024-02-26T05:20:55;14.10;5.50
418;DHT22;49;48.530;9.200;2024-02-26T05:23:21;14.50;4.50
418;DHT22;49;48.530;9.200;2024-02-26T05:25:49;14.20;5.10
418;DHT22;49;48.530;9.200;2024-02-26T05:28:16;13.90;3.60
418;DHT22;49;48.530;9.200;2024-02-26T05:30:47;13.70;2.90
418;DHT22;49;48.530;9.200;2024-02-26T05:33:14;13.30;3.30
418;DHT22;49;48.530;9.200;2024-02-26T05:35:41;13.10;3.90
418;DHT22;49;48.530;9.200;2024-02-26T05:38:08;13.00;8.40
418;DHT22;49;48.530;9.200;2024-02-26T05:40:34;13.10;4.60
418;DHT22;49;48.530;9.200;2024-02-26T05:43:02;13.40;9.90
418;DHT22;49;48.530;9.200;2024-02-26T05:45:28;13.60;5.70
418;DHT22;49;48.530;9.200;2024-02-26T05:47:57;14.00;8.80
418;DHT22;49;48.530;9.200;2024-02-26T05:50:23;14.60;7.50
418;DHT22;49;48.530;9.200;2024-02-26T05:52:51;14.40;8.00
418;DHT22;49;48.530;9.200;2024-02-26T05:55:18;14.40;5.70
418;DHT22;49;48.530;9.200;2024-02-26T05:57:44;14.30;6.50
418;DHT22;49;48.530;9.200;2024-02-26T06:00:12;14.60;6.80
418;DHT22;49;48.530;9.200;2024-02-26T06:02:39;14.30;7.90
418;DHT22;49;48.530;9.200;2024-02-26T06:05:07;14.40;7.90
418;DHT22;49;48.530;9.200;2024-02-26T06:07:35;14.60;8.10
418;DHT22;49;48.530;9.200;2024-02-26T06:10:02;14.50;6.20
418;DHT22;49;48.530;9.200;2024-02-26T06:12:30;14.70;6.40
418;DHT22;49;48.530;9.200;2024-02-26T06:14:58;14.60;8.10
418;DHT22;49;48.530;9.200;2024-02-26T06:17:26;14.40;6.00
418;DHT22;49;48.530;9.200;2024-02-26T06:19:53;14.30;3.80
418;DHT22;49;48.530;9.200;2024-02-26T06:22:21;13.70;6.10
418;DHT22;49;48.530;9.200;2024-02-26T06:24:48;13.60;6.20
418;DHT22;49;48.530;9.200;2024-02-26T06:27:15;12.90;8.40
418;DHT22;49;48.530;9.200;2024-02-26T06:29:42;13.10;8.40
418;DHT22;49;48.530;9.200;2024-02-26T06:32:09;13.60;8.40
418;DHT22;49;48.530;9.200;2024-02-26T06:34:36;13.80;7.10
418;DHT22;49;48.530;9.200;2024-02-26T06:37:03;14.10;8.20
418;DHT22;49;48.530;9.200;2024-02-26T06:39:32;14.30;8.00
418;DHT22;49;48.530;9.200;2024-02-26T06:41:58;14.50;6.60
418;DHT22;49;48.530;9.200;2024-02-26T06:44:27;14.40;5.10
418;DHT22;49;48.530;9.200;2024-02-26T06:46:57;14.40;5.80
418;DHT22;49;48.530;9.200;2024-02-26T06:49:25;14.30;4.70
418;DHT22;49;48.530;9.200;2024-02-26T06:51:52;14.50;5.90
418;DHT22;49;48.530;9.200;2024-02-26T06:54:19;14.30;4.50
418;DHT22;49;48.530;9.200;2024-02-26T06:56:50;13.80;6.80
418;DHT22;49;48.530;9.200;2024-02-26T06:59:17;13.50;7.30
418;DHT22;49;48.530;9.200;2024-02-26T07:01:48;13.70;6.40
418;DHT22;49;48.530;9.200;2024-02-26T07:04:15;13.70;8.50
418;DHT22;49;48.530;9.200;2024-02-26T07:06:52;14.00;9.10
418;DHT22;49;48.530;9.200;2024-02-26T07:09:20;14.40;6.90
418;DHT22;49;48.530;9.200;2024-02-26T07:11:48;14.50;7.60
418;DHT22;49;48.530;9.200;2024-02-26T07:14:17;14.40;5.30
418;DHT22;49;48.530;9.200;2024-02-26T07:16:44;14.60;5.80
418;DHT22;49;48.530;9.200;2024-02-26T07:19:13;14.70;4.30
418;DHT22;49;48.530;9.200;2024-02-26T07:21:40;14.40;4.40
418;DHT22;49;48.530;9.200;2024-02-26T07:24:07;13.90;6.10
418;DHT22;49;48.530;9.200;2024-02-26T07:26:33;14.20;5.80
418;DHT22;49;48.530;9.200;2024-02-26T07:29:02;14.30;7.80
418;DHT22;49;48.530;9.200;2024-02-26T07:31:29;14.30;5.90
418;DHT22;49;48.530;9.200;2024-02-26T07:33:56;14.10;5.60
418;DHT22;49;48.530;9.200;2024-02-26T07:36:26;14.30;7.20
418;DHT22;49;48.530;9.200;2024-02-26T07:38:53;14.60;7.70
418;DHT22;49;48.530;9.200;2024-02-26T07:41:20;14.60;4.00
418;DHT22;49;48.530;9.200;2024-02-26T07:43:47;14.30;5.00
418;DHT22;49;48.530;9.200;2024-02-26T07:46:17;14.40;5.70
418;DHT22;49;48.530;9.200;2024-02-26T07:48:47;14.70;7.10
418;DHT22;49;48.530;9.200;2024-02-26T07:51:13;14.70;4.50
418;DHT22;49;48.530;9.200;2024-02-26T07:53:41;14.30;4.30
418;DHT22;49;48.530;9.200;2024-02-26T07:56:08;14.30;4.80
418;DHT22;49;48.530;9.200;2024-02-26T07:58:35;14.40;4.50
418;DHT22;49;48.530;9.200;2024-02-26T08:01:02;14.50;4.90
418;DHT22;49;48.530;9.200;2024-02-26T08:03:33;14.30;4.20
418;DHT22;49;48.530;9.200;2024-02-26T08:06:01;14.20;4.40
418;DHT22;49;48.530;9.200;2024-02-26T08:08:31;14.20;4.80
418;DHT22;49;48.530;9.200;2024-02-26T08:10:58;14.10;5.00
418;DHT22;49;48.530;9.200;2024-02-26T08:13:27;14.10;5.10
418;DHT22;49;48.530;9.200;2024-02-26T08:15:54;13.90;5.60
418;DHT22;49;48.530;9.200;2024-02-26T08:18:21;14.10;5.40
418;DHT22;49;48.530;9.200;2024-02-26T08:20:49;14.20;5.00
418;DHT22;49;48.530;9.200;2024-02-26T08:23:17;14.20;4.80
418;DHT22;49;48.530;9.200;2024-02-26T08:25:48;14.10;5.40
418;DHT22;49;48.530;9.200;2024-02-26T08:28:15;14.20;5.40
418;DHT22;49;48.530;9.200;2024-02-26T08:30:43;14.50;6.60
418;DHT22;49;48.530;9.200;2024-02-26T08:33:10;14.50;5.20
418;DHT22;49;48.530;9.200;2024-02-26T08:35:37;14.50;5.40
418;DHT22;49;48.530;9.200;2024-02-26T08:38:05;14.40;5.90
418;DHT22;49;48.530;9.200;2024-02-26T08:40:32;14.30;5.50
418;DHT22;49;48.530;9.200;2024-02-26T08:42:59;14.20;6.20
418;DHT22;49;48.530;9.200;2024-02-26T08:45:26;14.00;6.70
418;DHT22;49;48.530;9.200;2024-02-26T08:47:53;13.90;6.10
418;DHT22;49;48.530;9.200;2024-02-26T08:50:20;13.90;4.70
418;DHT22;49;48.530;9.200;2024-02-26T08:52:46;14.00;6.20
418;DHT22;49;48.530;9.200;2024-02-26T08:55:17;13.90;5.70
418;DHT22;49;48.530;9.200;2024-02-26T08:57:44;14.30;5.50
418;DHT22;49;48.530;9.200;2024-02-26T09:00:12;14.20;4.80
418;DHT22;49;48.530;9.200;2024-02-26T09:02:40;14.10;5.40
418;DHT22;49;48.530;9.200;2024-02-26T09:05:09;13.90;6.20
418;DHT22;49;48.530;9.200;2024-02-26T09:07:36;13.80;6.20
418;DHT22;49;48.530;9.200;2024-02-26T09:10:07;13.60;6.80
418;DHT22;49;48.530;9.200;2024-02-26T09:12:37;13.40;6.70
418;DHT22;49;48.530;9.200;2024-02-26T09:15:06;13.50;7.30
418;DHT22;49;48.530;9.200;2024-02-26T09:17:36;13.70;8.10
418;DHT22;49;48.530;9.200;2024-02-26T09:20:04;13.70;7.50
418;DHT22;49;48.530;9.200;2024-02-26T09:22:31;13.50;7.30
418;DHT22;49;48.530;9.200;2024-02-26T09:25:00;13.10;8.30
418;DHT22;49;48.530;9.200;2024-02-26T09:27:27;13.00;7.80
418;DHT22;49;48.530;9.200;2024-02-26T09:29:57;12.90;8.10
418;DHT22;49;48.530;9.200;2024-02-26T09:32:24;12.30;9.10
418;DHT22;49;48.530;9.200;2024-02-26T09:34:51;12.10;9.90
418;DHT22;49;48.530;9.200;2024-02-26T09:37:18;12.00;10.70
418;DHT22;49;48.530;9.200;2024-02-26T09:39:45;12.10;10.10
418;DHT22;49;48.530;9.200;2024-02-26T09:42:13;12.00;10.30
418;DHT22;49;48.530;9.200;2024-02-26T09:44:40;11.90;11.40
418;DHT22;49;48.530;9.200;2024-02-26T09:47:11;12.20;11.80
418;DHT22;49;48.530;9.200;2024-02-26T09:49:39;12.60;9.30
418;DHT22;49;48.530;9.200;2024-02-26T09:52:06;12.70;9.00
418;DHT22;49;48.530;9.200;2024-02-26T09:54:35;12.70;9.10
418;DHT22;49;48.530;9.200;2024-02-26T09:57:03;13.00;8.90
418;DHT22;49;48.530;9.200;2024-02-26T09:59:39;13.20;8.40
418;DHT22;49;48.530;9.200;2024-02-26T10:02:18;12.90;8.70
418;DHT22;49;48.530;9.200;2024-02-26T10:04:47;13.40;7.80
418;DHT22;49;48.530;9.200;2024-02-26T10:07:17;13.80;7.50
418;DHT22;49;48.530;9.200;2024-02-26T10:09:44;13.60;7.10
418;DHT22;49;48.530;9.200;2024-02-26T10:12:11;13.60;7.90
418;DHT22;49;48.530;9.200;2024-02-26T10:14:41;13.80;7.50
418;DHT22;49;48.530;9.200;2024-02-26T10:17:09;13.70;7.50
418;DHT22;49;48.530;9.200;2024-02-26T10:19:37;14.10;7.30
418;DHT22;49;48.530;9.200;2024-02-26T10:22:04;14.30;7.10
418;DHT22;49;48.530;9.200;2024-02-26T10:24:31;14.60;5.60
418;DHT22;49;48.530;9.200;2024-02-26T10:26:59;14.30;5.70
418;DHT22;49;48.530;9.200;2024-02-26T10:29:26;13.70;7.00
418;DHT22;49;48.530;9.200;2024-02-26T10:31:56;14.10;6.90
418;DHT22;49;48.530;9.200;2024-02-26T10:34:23;14.30;6.20
418;DHT22;49;48.530;9.200;2024-02-26T10:36:51;13.80;6.80
418;DHT22;49;48.530;9.200;2024-02-26T10:39:18;13.80;7.30
418;DHT22;49;48.530;9.200;2024-02-26T10:41:45;13.40;7.30
418;DHT22;49;48.530;9.200;2024-02-26T10:44:13;13.10;8.00
418;DHT22;49;48.530;9.200;2024-02-26T10:46:42;13.10;8.30
418;DHT22;49;48.530;9.200;2024-02-26T10:49:14;12.90;8.60
418;DHT22;49;48.530;9.200;2024-02-26T10:51:45;12.90;8.50
418;DHT22;49;48.530;9.200;2024-02-26T10:54:15;12.70;8.50
418;DHT22;49;48.530;9.200;2024-02-26T10:56:57;13.00;9.00
418;DHT22;49;48.530;9.200;2024-02-26T10:59:25;13.80;7.90
418;DHT22;49;48.530;9.200;2024-02-26T11:01:52;13.90;7.60
418;DHT22;49;48.530;9.200;2024-02-26T11:04:21;14.60;6.90
418;DHT22;49;48.530;9.200;2024-02-26T11:06:50;15.20;5.60
418;DHT22;49;48.530;9.200;2024-02-26T11:09:24;15.00;5.10
418;DHT22;49;48.530;9.200;2024-02-26T11:11:52;15.10;4.90
418;DHT22;49;48.530;9.200;2024-02-26T11:14:24;14.90;5.40
418;DHT22;49;48.530;9.200;2024-02-26T11:16:51;14.60;5.80
418;DHT22;49;48.530;9.200;2024-02-26T11:19:20;14.60;6.40
418;DHT22;49;48.530;9.200;2024-02-26T11:21:47;14.80;5.80
418;DHT22;49;48.530;9.200;2024-02-26T11:24:15;14.80;5.30
418;DHT22;49;48.530;9.200;2024-02-26T11:26:50;14.70;5.30
418;DHT22;49;48.530;9.200;2024-02-26T11:29:27;14.80;5.40
418;DHT22;49;48.530;9.200;2024-02-26T11:31:55;15.20;4.40
418;DHT22;49;48.530;9.200;2024-02-26T11:34:22;15.90;4.20
418;DHT22;49;48.530;9.200;2024-02-26T11:36:54;16.20;2.90
418;DHT22;49;48.530;9.200;2024-02-26T11:39:21;16.30;2.80
418;DHT22;49;48.530;9.200;2024-02-26T11:41:54;16.30;1.60
418;DHT22;49;48.530;9.200;2024-02-26T11:44:29;16.00;2.20
418;DHT22;49;48.530;9.200;2024-02-26T11:46:56;15.90;2.50
418;DHT22;49;48.530;9.200;2024-02-26T11:49:37;15.50;2.40
418;DHT22;49;48.530;9.200;2024-02-26T11:52:08;16.10;2.40
418;DHT22;49;48.530;9.200;2024-02-26T11:54:46;16.40;2.20
418;DHT22;49;48.530;9.200;2024-02-26T11:57:28;16.70;1.60
418;DHT22;49;48.530;9.200;2024-02-26T11:59:56;16.50;1.00
418;DHT22;49;48.530;9.200;2024-02-26T12:02:55;16.20;1.80
418;DHT22;49;48.530;9.200;2024-02-26T12:05:27;16.50;1.40
418;DHT22;49;48.530;9.200;2024-02-26T12:08:00;16.70;1.00
418;DHT22;49;48.530;9.200;2024-02-26T12:10:31;16.90;1.00
418;DHT22;49;48.530;9.200;2024-02-26T12:13:07;17.10;1.00
418;DHT22;49;48.530;9.200;2024-02-26T12:15:37;17.30;1.00
418;DHT22;49;48.530;9.200;2024-02-26T12:18:06;16.90;1.00
418;DHT22;49;48.530;9.200;2024-02-26T12:20:35;16.50;1.00
418;DHT22;49;48.530;9.200;2024-02-26T12:23:03;16.50;1.00
418;DHT22;49;48.530;9.200;2024-02-26T12:25:31;16.60;1.00
418;DHT22;49;48.530;9.200;2024-02-26T12:27:59;16.20;1.00
418;DHT22;49;48.530;9.200;2024-02-26T12:30:28;16.60;1.20
418;DHT22;49;48.530;9.200;2024-02-26T12:32:59;16.70;1.50
418;DHT22;49;48.530;9.200;2024-02-26T12:35:26;16.80;1.20
418;DHT22;49;48.530;9.200;2024-02-26T12:37:54;17.10;1.00
418;DHT22;49;48.530;9.200;2024-02-26T12:40:22;17.10;1.00
418;DHT22;49;48.530;9.200;2024-02-26T12:42:49;17.00;1.70
418;DHT22;49;48.530;9.200;2024-02-26T12:45:16;17.50;1.10
418;DHT22;49;48.530;9.200;2024-02-26T12:47:45;17.80;1.00
418;DHT22;49;48.530;9.200;2024-02-26T12:50:13;17.80;1.00
418;DHT22;49;48.530;9.200;2024-02-26T12:52:43;17.10;1.00
418;DHT22;49;48.530;9.200;2024-02-26T12:55:17;17.20;1.60
418;DHT22;49;48.530;9.200;2024-02-26T12:57:45;17.10;1.00
418;DHT22;49;48.530;9.200;2024-02-26T13:00:18;16.90;1.40
418;DHT22;49;48.530;9.200;2024-02-26T13:02:46;16.50;2.00
418;DHT22;49;48.530;9.200;2024-02-26T13:05:14;16.30;3.00
418;DHT22;49;48.530;9.200;2024-02-26T13:07:42;16.70;2.20
418;DHT22;49;48.530;9.200;2024-02-26T13:10:09;16.90;2.00
418;DHT22;49;48.530;9.200;2024-02-26T13:12:43;17.00;2.00
418;DHT22;49;48.530;9.200;2024-02-26T13:15:14;17.00;1.90
418;DHT22;49;48.530;9.200;2024-02-26T13:17:42;16.90;1.90
418;DHT22;49;48.530;9.200;2024-02-26T13:20:11;16.70;2.30
418;DHT22;49;48.530;9.200;2024-02-26T13:22:38;16.60;2.50
418;DHT22;49;48.530;9.200;2024-02-26T13:25:05;16.10;2.80
418;DHT22;49;48.530;9.200;2024-02-26T13:27:33;16.00;3.30
418;DHT22;49;48.530;9.200;2024-02-26T13:30:05;15.50;4.00
418;DHT22;49;48.530;9.200;2024-02-26T13:32:36;15.30;5.10
418;DHT22;49;48.530;9.200;2024-02-26T13:35:07;15.90;3.90
418;DHT22;49;48.530;9.200;2024-02-26T13:37:37;16.20;2.90
418;DHT22;49;48.530;9.200;2024-02-26T13:40:06;16.30;3.00
418;DHT22;49;48.530;9.200;2024-02-26T13:42:34;16.30;2.80
418;DHT22;49;48.530;9.200;2024-02-26T13:45:02;16.60;2.60
418;DHT22;49;48.530;9.200;2024-02-26T13:47:32;17.10;2.10
418;DHT22;49;48.530;9.200;2024-02-26T13:50:03;17.00;1.00
418;DHT22;49;48.530;9.200;2024-02-26T13:52:34;16.70;2.10
418;DHT22;49;48.530;9.200;2024-02-26T13:55:13;16.50;2.10
418;DHT22;49;48.530;9.200;2024-02-26T13:57:41;16.10;3.00
418;DHT22;49;48.530;9.200;2024-02-26T14:00:09;16.00;3.60
418;DHT22;49;48.530;9.200;2024-02-26T14:02:39;16.10;2.80
418;DHT22;49;48.530;9.200;2024-02-26T14:05:07;15.80;2.60
418;DHT22;49;48.530;9.200;2024-02-26T14:07:34;15.80;2.60
418;DHT22;49;48.530;9.200;2024-02-26T14:10:03;15.90;2.50
418;DHT22;49;48.530;9.200;2024-02-26T14:12:43;16.00;2.20
418;DHT22;49;48.530;9.200;2024-02-26T14:15:11;16.50;2.30
418;DHT22;49;48.530;9.200;2024-02-26T14:17:38;16.60;1.50
418;DHT22;49;48.530;9.200;2024-02-26T14:20:14;16.50;1.60
418;DHT22;49;48.530;9.200;2024-02-26T14:22:42;17.30;1.50
418;DHT22;49;48.530;9.200;2024-02-26T14:25:10;17.80;1.00
418;DHT22;49;48.530;9.200;2024-02-26T14:27:37;16.70;1.00
418;DHT22;49;48.530;9.200;2024-02-26T14:30:06;16.50;1.00
418;DHT22;49;48.530;9.200;2024-02-26T14:32:34;16.00;1.60
418;DHT22;49;48.530;9.200;2024-02-26T14:35:04;15.80;2.10
418;DHT22;49;48.530;9.200;2024-02-26T14:37:32;15.80;1.70
418;DHT22;49;48.530;9.200;2024-02-26T14:39:59;15.50;2.40
418;DHT22;49;48.530;9.200;2024-02-26T14:42:26;15.50;2.50
418;DHT22;49;48.530;9.200;2024-02-26T14:44:53;15.30;2.30
418;DHT22;49;48.530;9.200;2024-02-26T14:47:22;15.50;2.40
418;DHT22;49;48.530;9.200;2024-02-26T14:49:49;15.30;2.30
418;DHT22;49;48.530;9.200;2024-02-26T14:52:17;15.20;2.60
418;DHT22;49;48.530;9.200;2024-02-26T14:54:46;15.60;2.50
418;DHT22;49;48.530;9.200;2024-02-26T14:57:14;15.50;2.40
418;DHT22;49;48.530;9.200;2024-02-26T14:59:41;15.80;2.00
418;DHT22;49;48.530;9.200;2024-02-26T15:02:09;15.70;1.90
418;DHT22;49;48.530;9.200;2024-02-26T15:04:38;15.90;1.80
418;DHT22;49;48.530;9.200;2024-02-26T15:07:05;16.00;1.30
418;DHT22;49;48.530;9.200;2024-02-26T15:09:35;16.00;1.50
418;DHT22;49;48.530;9.200;2024-02-26T15:12:06;16.30;1.00
418;DHT22;49;48.530;9.200;2024-02-26T15:14:33;16.00;1.00
418;DHT22;49;48.530;9.200;2024-02-26T15:17:01;15.70;1.00
418;DHT22;49;48.530;9.200;2024-02-26T15:19:30;15.40;1.00
418;DHT22;49;48.530;9.200;2024-02-26T15:22:03;15.50;1.70
418;DHT22;49;48.530;9.200;2024-02-26T15:24:31;15.30;2.40
418;DHT22;49;48.530;9.200;2024-02-26T15:27:00;15.10;2.80
418;DHT22;49;48.530;9.200;2024-02-26T15:29:28;15.00;3.60
418;DHT22;49;48.530;9.200;2024-02-26T15:31:56;15.30;2.90
418;DHT22;49;48.530;9.200;2024-02-26T15:34:26;15.10;3.30
418;DHT22;49;48.530;9.200;2024-02-26T15:36:55;14.90;4.20
418;DHT22;49;48.530;9.200;2024-02-26T15:39:24;14.90;4.50
418;DHT22;49;48.530;9.200;2024-02-26T15:41:51;14.70;4.80
418;DHT22;49;48.530;9.200;2024-02-26T15:44:18;14.60;5.10
418;DHT22;49;48.530;9.200;2024-02-26T15:46:51;14.70;4.90
418;DHT22;49;48.530;9.200;2024-02-26T15:49:19;14.40;5.40
418;DHT22;49;48.530;9.200;2024-02-26T15:51:49;14.30;5.90
418;DHT22;49;48.530;9.200;2024-02-26T15:54:16;14.20;6.30
418;DHT22;49;48.530;9.200;2024-02-26T15:56:46;14.30;6.60
418;DHT22;49;48.530;9.200;2024-02-26T15:59:13;14.20;6.30
418;DHT22;49;48.530;9.200;2024-02-26T16:01:41;14.30;6.30
418;DHT22;49;48.530;9.200;2024-02-26T16:04:12;14.50;5.80
418;DHT22;49;48.530;9.200;2024-02-26T16:06:42;14.60;5.90
418;DHT22;49;48.530;9.200;2024-02-26T16:09:10;14.90;5.80
418;DHT22;49;48.530;9.200;2024-02-26T16:11:41;14.90;4.90
418;DHT22;49;48.530;9.200;2024-02-26T16:14:13;14.80;5.60
418;DHT22;49;48.530;9.200;2024-02-26T16:17:01;14.60;6.00
418;DHT22;49;48.530;9.200;2024-02-26T16:19:36;14.30;6.60
418;DHT22;49;48.530;9.200;2024-02-26T16:22:03;14.50;6.10
418;DHT22;49;48.530;9.200;2024-02-26T16:24:31;14.30;7.60
418;DHT22;49;48.530;9.200;2024-02-26T16:27:41;14.30;7.50
418;DHT22;49;48.530;9.200;2024-02-26T16:30:11;14.10;7.70
418;DHT22;49;48.530;9.200;2024-02-26T16:32:42;13.90;8.60
418;DHT22;49;48.530;9.200;2024-02-26T16:35:09;13.90;9.00
418;DHT22;49;48.530;9.200;2024-02-26T16:37:42;13.70;9.90
418;DHT22;49;48.530;9.200;2024-02-26T16:40:13;13.70;10.40
418;DHT22;49;48.530;9.200;2024-02-26T16:42:45;13.70;10.60
418;DHT22;49;48.530;9.200;2024-02-26T16:45:18;13.90;10.60
418;DHT22;49;48.530;9.200;2024-02-26T16:47:46;13.80;10.90
418;DHT22;49;48.530;9.200;2024-02-26T16:50:14;13.90;10.70
418;DHT22;49;48.530;9.200;2024-02-26T16:52:44;13.80;10.70
418;DHT22;49;48.530;9.200;2024-02-26T16:55:17;13.80;10.90
418;DHT22;49;48.530;9.200;2024-02-26T16:57:55;13.60;11.30
418;DHT22;49;48.530;9.200;2024-02-26T17:00:28;13.70;11.20
418;DHT22;49;48.530;9.200;2024-02-26T17:02:55;13.60;11.70
418;DHT22;49;48.530;9.200;2024-02-26T17:05:27;13.60;11.80
418;DHT22;49;48.530;9.200;2024-02-26T17:07:59;13.80;11.00
418;DHT22;49;48.530;9.200;2024-02-26T17:10:26;13.90;10.50
418;DHT22;49;48.530;9.200;2024-02-26T17:12:54;13.70;10.80
418;DHT22;49;48.530;9.200;2024-02-26T17:15:28;13.60;11.60
418;DHT22;49;48.530;9.200;2024-02-26T17:18:05;13.70;11.10